Time;durP1;ratioP1;P1;durP2;ratioP2;P2;SDS_P1;SDS_P2;PMS_P1;PMS_P2;Temp;Humidity;BMP_temperature;BMP_pressure;BME280_temperature;BME280_humidity;BME280_pressure;Samples;Min_cycle;Max_cycle;Signal;HPM_P1;HPM_P2
2021/10/12 08:27:31;;;;;;;3.43;2.17;;;;;;;10.48;97.35;99286.22;5104993;28;21036;-76
2021/10/12 08:29:59;;;;;;;2.77;1.73;;;;;;;11.10;97.17;99291.50;5088059;28;39798;-77
2021/10/12 08:32:26;;;;;;;2.40;2.10;;;;;;;11.77;92.60;99279.56;5105032;28;42466;-80
2021/10/12 08:34:54;;;;;;;2.50;2.17;;;;;;;12.38;87.76;99278.41;5071442;28;41814;-76
2021/10/12 08:37:21;;;;;;;2.20;1.70;;;;;;;12.94;84.84;99271.28;5111898;27;42189;-77
2021/10/12 08:39:49;;;;;;;1.73;1.60;;;;;;;13.56;81.64;99274.25;5103079;28;38724;-76
2021/10/12 08:42:25;;;;;;;3.57;1.60;;;;;;;14.47;76.66;99273.16;5104236;27;40518;-78
2021/10/12 08:44:57;;;;;;;2.63;1.90;;;;;;;14.97;73.74;99288.13;5104898;28;43175;-76
2021/10/12 08:47:30;;;;;;;2.30;1.67;;;;;;;15.41;71.99;99271.50;5110430;27;42445;-77
2021/10/12 08:50:01;;;;;;;2.00;1.73;;;;;;;16.16;69.92;99274.59;5084264;28;40193;-76
2021/10/12 08:52:29;;;;;;;2.67;2.27;;;;;;;15.95;68.34;99243.38;5119585;27;40439;-76
2021/10/12 08:54:57;;;;;;;2.03;1.83;;;;;;;15.98;67.64;99273.34;5105359;28;42740;-77
2021/10/12 08:57:29;;;;;;;2.33;1.90;;;;;;;15.87;67.24;99268.00;5102269;28;42942;-74
2021/10/12 09:00:00;;;;;;;1.97;1.87;;;;;;;15.80;67.20;99261.44;5122578;27;38834;-79
2021/10/12 09:02:29;;;;;;;3.50;2.60;;;;;;;15.55;67.01;99245.59;5126486;27;41796;-76
2021/10/12 09:04:57;;;;;;;1.97;1.77;;;;;;;15.25;66.93;99230.91;5083659;28;42771;-76
2021/10/12 09:07:27;;;;;;;2.97;1.70;;;;;;;15.11;67.86;99236.44;5075362;28;41083;-75
2021/10/12 09:09:56;;;;;;;2.87;2.13;;;;;;;15.03;68.54;99221.00;5104292;28;39901;-76
2021/10/12 09:12:41;;;;;;;2.47;1.80;;;;;;;15.21;68.30;99242.78;5092548;28;41587;-77
2021/10/12 09:15:12;;;;;;;2.97;2.00;;;;;;;15.04;67.91;99235.19;5085929;28;42178;-75
2021/10/12 09:17:42;;;;;;;2.87;1.87;;;;;;;14.94;68.32;99247.53;5104132;28;42002;-76
2021/10/12 09:20:29;;;;;;;3.87;2.43;;;;;;;14.81;68.35;99239.59;5103972;28;39902;-76
2021/10/12 09:23:06;;;;;;;4.30;3.17;;;;;;;14.70;68.13;99224.38;5083430;28;41959;-77
2021/10/12 09:25:36;;;;;;;2.73;2.50;;;;;;;14.86;68.34;99231.22;5083287;28;42776;-76
2021/10/12 09:28:05;;;;;;;3.60;2.80;;;;;;;15.17;66.59;99233.31;5117661;27;40746;-77
2021/10/12 09:30:37;;;;;;;4.17;2.37;;;;;;;15.72;66.27;99226.44;5084095;28;40679;-76
2021/10/12 09:33:06;;;;;;;5.33;2.10;;;;;;;16.30;64.81;99233.41;5098065;28;40940;-76
2021/10/12 09:35:35;;;;;;;2.40;2.20;;;;;;;16.86;62.87;99242.19;5102808;28;42769;-77
2021/10/12 09:38:05;;;;;;;2.27;2.07;;;;;;;17.48;60.78;99246.81;5073413;28;42417;-77
2021/10/12 09:40:35;;;;;;;4.03;2.13;;;;;;;17.79;60.40;99236.22;5076676;28;39741;-77
2021/10/12 09:43:04;;;;;;;3.63;2.50;;;;;;;18.09;59.30;99236.22;5090383;28;41031;-77
2021/10/12 09:45:41;;;;;;;6.23;4.00;;;;;;;18.09;58.19;99238.03;5106723;28;42990;-79
2021/10/12 09:48:28;;;;;;;3.43;2.03;;;;;;;18.00;57.60;99245.06;5107745;27;42218;-79
2021/10/12 09:51:13;;;;;;;2.87;1.97;;;;;;;18.03;58.10;99228.72;5070327;28;40002;-76
2021/10/12 09:53:42;;;;;;;1.97;1.77;;;;;;;18.27;57.89;99231.94;5068870;28;42896;-77
2021/10/12 09:56:11;;;;;;;1.93;1.60;;;;;;;18.35;56.41;99238.44;5070562;28;43702;-76
2021/10/12 09:58:39;;;;;;;3.03;1.50;;;;;;;17.89;55.38;99210.31;5089286;28;42779;-76
2021/10/12 10:01:10;;;;;;;1.90;1.40;;;;;;;17.82;56.75;99225.22;5090386;28;40391;-75
2021/10/12 10:03:38;;;;;;;2.63;1.40;;;;;;;17.53;57.13;99230.38;5086657;28;42111;-75
2021/10/12 10:06:10;;;;;;;2.97;1.50;;;;;;;17.29;57.23;99222.59;5077935;28;42683;-80
2021/10/12 10:08:48;;;;;;;2.63;1.60;;;;;;;17.08;58.03;99213.66;5088221;28;42112;-73
2021/10/12 10:11:15;;;;;;;1.70;1.60;;;;;;;16.90;58.07;99207.19;5070971;28;39843;-75
2021/10/12 10:13:44;;;;;;;1.40;1.30;;;;;;;16.77;58.58;99184.13;5070176;28;41773;-76
2021/10/12 10:16:14;;;;;;;2.53;1.50;;;;;;;16.76;58.89;99194.94;5077556;28;42547;-73
2021/10/12 10:18:43;;;;;;;1.80;1.70;;;;;;;16.61;58.63;99189.00;5090341;28;42872;-74
2021/10/12 10:21:11;;;;;;;3.60;1.67;;;;;;;16.43;59.18;99195.84;5071510;28;40809;-78
2021/10/12 10:23:59;;;;;;;1.70;1.60;;;;;;;16.38;58.54;99187.34;5090733;28;42614;-79
2021/10/12 10:26:31;;;;;;;2.00;1.40;;;;;;;16.52;58.61;99195.09;5089635;28;42938;-77
2021/10/12 10:29:22;;;;;;;1.40;1.30;;;;;;;16.54;57.44;99195.81;5088205;28;42368;-73
2021/10/12 10:31:55;;;;;;;1.37;1.20;;;;;;;16.38;58.19;99190.88;5117232;27;40190;-77
2021/10/12 10:34:32;;;;;;;3.17;1.30;;;;;;;16.19;58.79;99179.13;5051603;28;41127;-75
2021/10/12 10:37:22;;;;;;;1.70;1.40;;;;;;;16.14;59.53;99174.13;5071802;28;42426;-75
2021/10/12 10:39:52;;;;;;;1.30;1.20;;;;;;;16.05;59.67;99173.06;5088126;28;42122;-78
2021/10/12 10:42:59;;;;;;;1.50;1.40;;;;;;;15.89;59.52;99172.56;5087706;28;38669;-74
2021/10/12 10:45:50;;;;;;;1.43;1.30;;;;;;;15.74;59.36;99171.09;5051066;28;42615;-73
2021/10/12 10:48:22;;;;;;;2.33;2.13;;;;;;;15.61;59.53;99165.03;5059029;28;43527;-75
2021/10/12 10:50:49;;;;;;;1.47;1.37;;;;;;;15.46;59.90;99167.03;5060753;28;42231;-79
2021/10/12 10:53:38;;;;;;;1.33;1.23;;;;;;;15.22;60.29;99153.75;5068511;28;38874;-75
2021/10/12 10:56:06;;;;;;;2.03;1.57;;;;;;;15.15;60.49;99147.22;5071113;28;40626;-78
2021/10/12 10:58:34;;;;;;;1.60;1.50;;;;;;;15.13;61.50;99153.63;5068188;28;41683;-76
2021/10/12 11:01:37;;;;;;;1.60;1.40;;;;;;;15.20;61.30;99150.38;5068669;28;42034;-76
2021/10/12 11:04:42;;;;;;;1.47;1.30;;;;;;;15.30;60.59;99151.38;5069808;28;40900;-77
2021/10/12 11:07:11;;;;;;;2.70;1.13;;;;;;;15.42;60.74;99145.09;5074367;28;42752;-76
2021/10/12 11:09:43;;;;;;;1.47;1.20;;;;;;;15.65;61.02;99134.47;5088595;28;42974;-75
2021/10/12 11:12:18;;;;;;;2.43;1.77;;;;;;;15.86;60.09;99118.53;5086798;28;40710;-74
2021/10/12 11:14:46;;;;;;;2.40;1.47;;;;;;;16.45;59.82;99127.03;5088664;28;39920;-74
2021/10/12 11:17:14;;;;;;;3.40;1.27;;;;;;;17.12;57.93;99133.00;5086137;28;40709;-75
2021/10/12 11:19:54;;;;;;;1.70;1.60;;;;;;;17.58;56.62;99137.91;5068766;28;43101;-74
2021/10/12 11:22:23;;;;;;;3.03;2.23;;;;;;;17.67;55.79;99143.50;5100424;28;42827;-75
2021/10/12 11:24:51;;;;;;;1.43;1.33;;;;;;;17.62;55.23;99140.34;5101990;28;39398;-74
2021/10/12 11:27:19;;;;;;;1.40;1.30;;;;;;;17.56;54.96;99139.88;5058422;28;41287;-74
2021/10/12 11:30:05;;;;;;;1.87;1.67;;;;;;;17.67;54.93;99130.13;5089950;28;42878;-74
2021/10/12 11:32:32;;;;;;;1.50;1.20;;;;;;;17.65;54.49;99137.44;5087200;28;41064;-77
2021/10/12 11:35:06;;;;;;;1.93;1.10;;;;;;;17.65;54.60;99126.72;5087294;28;39126;-78
2021/10/12 11:37:33;;;;;;;1.27;1.17;;;;;;;17.51;54.52;99126.06;5089538;28;41664;-78
2021/10/12 11:40:13;;;;;;;1.20;1.00;;;;;;;17.31;54.79;99126.91;5086024;28;42773;-77
2021/10/12 11:42:42;;;;;;;3.07;0.90;;;;;;;17.02;55.42;99112.50;5084683;28;41126;-77
2021/10/12 11:45:10;;;;;;;1.87;1.20;;;;;;;16.73;55.72;99097.06;5087090;28;38778;-78
2021/10/12 11:47:39;;;;;;;1.03;0.90;;;;;;;16.48;56.66;99098.25;5088506;28;41988;-75
2021/10/12 11:50:10;;;;;;;1.37;1.07;;;;;;;16.15;57.04;99075.16;5087797;28;42889;-75
2021/10/12 11:52:38;;;;;;;1.53;0.90;;;;;;;15.97;57.64;99092.66;5087004;28;42515;-79
2021/10/12 11:55:07;;;;;;;2.03;0.70;;;;;;;15.97;58.51;99075.78;5088303;28;40329;-76
2021/10/12 11:57:37;;;;;;;1.53;1.27;;;;;;;16.00;57.65;99084.41;5070272;28;40778;-78
2021/10/12 12:00:06;;;;;;;1.27;1.17;;;;;;;16.07;58.04;99071.41;5067654;28;42861;-77
2021/10/12 12:02:40;;;;;;;1.17;1.07;;;;;;;16.20;57.75;99080.09;5085114;28;41770;-77
2021/10/12 12:05:10;;;;;;;1.50;0.93;;;;;;;16.12;57.53;99074.53;5087611;28;39974;-75
2021/10/12 12:07:43;;;;;;;1.30;1.20;;;;;;;15.94;57.80;99071.56;5086907;28;42072;-77
2021/10/12 12:10:11;;;;;;;1.47;1.20;;;;;;;15.79;58.48;99052.28;5056517;28;42280;-75
2021/10/12 12:12:39;;;;;;;2.07;1.10;;;;;;;15.82;57.67;99064.53;5073882;28;42461;-78
2021/10/12 12:15:08;;;;;;;1.10;1.00;;;;;;;15.70;58.68;99052.19;5057039;28;38906;-78
2021/10/12 12:17:39;;;;;;;2.27;1.13;;;;;;;15.61;58.82;99037.72;5087712;28;41683;-76
2021/10/12 12:20:11;;;;;;;1.57;0.90;;;;;;;15.71;59.34;99048.50;5086815;28;42936;-76
2021/10/12 12:22:42;;;;;;;1.10;1.00;;;;;;;15.76;58.51;99049.00;5086484;28;41696;-75
2021/10/12 12:25:14;;;;;;;0.83;0.83;;;;;;;15.67;59.08;99044.41;5101488;28;39111;-76
2021/10/12 12:27:53;;;;;;;1.83;1.30;;;;;;;15.55;58.82;99045.41;5087775;28;42705;-75
2021/10/12 12:30:31;;;;;;;1.00;0.93;;;;;;;15.41;59.52;99036.63;5085678;28;43644;-75
2021/10/12 12:33:00;;;;;;;1.33;1.23;;;;;;;15.31;59.93;99027.66;5070208;28;41555;-76
2021/10/12 12:35:38;;;;;;;1.57;1.20;;;;;;;15.31;59.57;99025.00;5084994;28;39117;-76
2021/10/12 12:38:06;;;;;;;1.40;1.23;;;;;;;15.24;60.03;99013.09;5073893;28;41663;-76
2021/10/12 12:40:36;;;;;;;1.53;1.37;;;;;;;15.34;59.85;99007.88;5079587;28;43156;-77
2021/10/12 12:43:16;;;;;;;1.30;1.20;;;;;;;15.80;59.12;99013.06;5087336;28;42700;-77
2021/10/12 12:45:44;;;;;;;1.97;1.40;;;;;;;15.98;58.01;98995.53;5087317;28;39511;-77
2021/10/12 12:48:11;;;;;;;1.57;1.07;;;;;;;16.45;58.20;99023.63;5084739;28;41753;-75
2021/10/12 12:50:47;;;;;;;1.23;0.90;;;;;;;16.62;58.14;99022.25;5087206;28;44190;-76
2021/10/12 12:53:41;;;;;;;1.63;1.10;;;;;;;16.46;57.70;98997.75;5087827;28;42978;-79
2021/10/12 12:56:10;;;;;;;1.47;1.17;;;;;;;16.33;57.96;99003.28;5087269;28;40950;-75
2021/10/12 12:58:39;;;;;;;1.33;1.23;;;;;;;16.12;57.95;99000.59;5086140;28;42641;-76
2021/10/12 13:01:08;;;;;;;1.00;1.00;;;;;;;15.89;58.45;98982.94;5052180;28;41452;-76
2021/10/12 13:03:35;;;;;;;0.90;0.90;;;;;;;15.79;59.11;98992.69;5086657;28;41299;-76
2021/10/12 13:06:04;;;;;;;2.43;2.23;;;;;;;15.70;59.12;98983.56;5087210;28;40191;-76
2021/10/12 13:08:31;;;;;;;2.87;1.53;;;;;;;15.66;58.85;98981.31;5068177;28;40781;-76
2021/10/12 13:11:00;;;;;;;1.33;1.00;;;;;;;15.66;58.83;98976.81;5086920;28;43091;-75
2021/10/12 13:13:28;;;;;;;1.43;1.10;;;;;;;15.75;59.20;98970.72;5089178;28;43131;-75
2021/10/12 13:15:56;;;;;;;2.07;1.10;;;;;;;15.85;59.53;98975.28;5089803;28;39901;-76
2021/10/12 13:18:23;;;;;;;1.37;1.27;;;;;;;15.84;58.41;98974.44;5090292;28;42133;-78
2021/10/12 13:20:51;;;;;;;1.17;0.87;;;;;;;15.77;58.77;98978.59;5089491;28;42750;-78
2021/10/12 13:23:19;;;;;;;3.03;2.00;;;;;;;15.58;59.23;98957.88;5087446;28;41325;-79
2021/10/12 13:25:46;;;;;;;1.40;1.30;;;;;;;15.55;59.25;98967.97;5086714;28;40315;-75
2021/10/12 13:28:15;;;;;;;1.47;0.97;;;;;;;15.48;59.52;98972.06;5087466;28;41847;-76
2021/10/12 13:30:42;;;;;;;1.80;1.63;;;;;;;15.43;59.73;98965.31;5089589;28;42816;-76
2021/10/12 13:33:10;;;;;;;2.67;1.10;;;;;;;15.36;60.33;98969.41;5087423;28;40975;-74
2021/10/12 13:35:37;;;;;;;0.80;0.80;;;;;;;15.20;60.38;98968.97;5090367;28;39937;-74
2021/10/12 13:38:05;;;;;;;1.33;1.23;;;;;;;15.02;60.53;98949.94;5089650;28;42432;-74
2021/10/12 13:40:32;;;;;;;2.80;1.63;;;;;;;14.96;60.60;98957.56;5089927;28;44285;-75
2021/10/12 13:43:01;;;;;;;1.90;1.40;;;;;;;14.83;60.78;98957.69;5072499;28;41322;-75
2021/10/12 13:45:32;;;;;;;0.90;0.90;;;;;;;14.70;61.07;98960.47;5088581;28;40822;-76
2021/10/12 13:48:00;;;;;;;1.43;1.13;;;;;;;14.63;61.63;98959.22;5086991;28;40859;-75
2021/10/12 13:50:27;;;;;;;1.87;0.90;;;;;;;14.51;61.90;98949.50;5089207;28;42851;-75
2021/10/12 13:52:55;;;;;;;1.80;0.80;;;;;;;14.51;61.97;98959.31;5086691;28;42286;-74
2021/10/12 13:55:24;;;;;;;0.77;0.77;;;;;;;14.48;61.65;98956.88;5086056;28;39672;-74
2021/10/12 13:57:52;;;;;;;0.70;0.70;;;;;;;14.46;62.19;98954.38;5087341;28;41233;-73
2021/10/12 14:00:21;;;;;;;1.80;0.80;;;;;;;14.42;62.25;98954.69;5088990;28;43299;-75
2021/10/12 14:02:51;;;;;;;1.20;1.07;;;;;;;14.43;62.48;98957.25;5087463;28;42703;-75
2021/10/12 14:05:18;;;;;;;1.60;1.50;;;;;;;14.39;62.15;98950.41;5085021;28;40034;-76
2021/10/12 14:07:46;;;;;;;1.63;0.70;;;;;;;14.36;62.53;98934.66;5065989;28;41727;-76
2021/10/12 14:10:14;;;;;;;2.27;0.93;;;;;;;14.36;62.50;98942.66;5071282;28;42072;-77
2021/10/12 14:12:41;;;;;;;0.97;0.90;;;;;;;14.35;62.75;98943.63;5035525;28;41423;-76
2021/10/12 14:15:12;;;;;;;1.20;1.00;;;;;;;14.37;62.57;98944.34;5088122;28;40628;-76
2021/10/12 14:17:40;;;;;;;2.53;1.37;;;;;;;14.39;62.92;98934.44;5071053;28;40797;-77
2021/10/12 14:20:12;;;;;;;2.93;0.90;;;;;;;14.37;63.10;98937.22;5070810;28;43098;-76
2021/10/12 14:22:40;;;;;;;0.97;0.90;;;;;;;14.28;63.66;98921.94;5088896;28;43128;-75
2021/10/12 14:25:08;;;;;;;0.90;0.90;;;;;;;14.35;63.59;98938.28;5087769;28;39913;-75
2021/10/12 14:27:36;;;;;;;0.90;0.90;;;;;;;14.32;63.85;98930.56;5070280;28;41676;-77
2021/10/12 14:30:04;;;;;;;1.10;1.00;;;;;;;14.27;64.22;98930.03;5085819;28;43848;-77
2021/10/12 14:32:32;;;;;;;1.30;1.20;;;;;;;14.26;64.50;98931.00;5089154;28;43611;-74
2021/10/12 14:35:00;;;;;;;1.60;1.50;;;;;;;14.24;65.04;98930.28;5070536;28;38720;-74
2021/10/12 14:37:32;;;;;;;4.20;1.40;;;;;;;14.19;65.07;98922.66;5089091;28;41850;-75
2021/10/12 14:40:02;;;;;;;1.13;1.07;;;;;;;14.16;65.48;98922.88;5088418;28;44067;-76
2021/10/12 14:42:30;;;;;;;1.30;1.20;;;;;;;14.15;65.41;98915.00;5072446;28;42302;-77
2021/10/12 14:44:58;;;;;;;1.10;1.00;;;;;;;14.22;65.59;98916.22;5087821;28;40861;-77
2021/10/12 14:47:25;;;;;;;1.63;1.23;;;;;;;14.22;65.49;98908.22;5087041;28;42669;-76
2021/10/12 14:49:53;;;;;;;0.97;0.93;;;;;;;14.31;64.83;98915.53;5082036;28;43358;-76
2021/10/12 14:52:20;;;;;;;1.17;1.07;;;;;;;14.38;64.92;98916.75;5086515;28;42146;-76
2021/10/12 14:54:51;;;;;;;1.60;1.17;;;;;;;14.43;65.17;98913.78;5088671;28;40649;-75
2021/10/12 14:57:21;;;;;;;1.77;1.20;;;;;;;14.41;64.89;98910.38;5087986;28;41908;-76
2021/10/12 14:59:48;;;;;;;1.40;1.13;;;;;;;14.39;64.89;98913.13;5086679;28;41836;-76
2021/10/12 15:02:16;;;;;;;2.57;1.10;;;;;;;14.27;65.04;98903.41;5086347;28;42266;-77
2021/10/12 15:04:43;;;;;;;1.50;1.40;;;;;;;14.14;66.02;98902.66;5071444;28;39152;-76
2021/10/12 15:07:11;;;;;;;1.77;1.30;;;;;;;14.03;66.18;98901.66;5086283;28;42281;-76
2021/10/12 15:09:38;;;;;;;1.37;1.27;;;;;;;13.93;66.89;98894.47;5086919;28;42802;-75
2021/10/12 15:12:09;;;;;;;1.00;0.80;;;;;;;13.86;67.74;98902.06;5086717;28;42272;-76
2021/10/12 15:14:38;;;;;;;1.53;1.37;;;;;;;13.74;67.84;98884.34;5071107;28;39814;-75
2021/10/12 15:17:05;;;;;;;1.37;1.27;;;;;;;13.69;68.71;98901.66;5086926;28;42207;-76
2021/10/12 15:19:33;;;;;;;1.67;1.57;;;;;;;13.62;68.94;98902.09;5121845;27;42596;-77
2021/10/12 15:22:02;;;;;;;2.67;1.60;;;;;;;13.64;69.03;98899.31;5100296;28;42221;-77
2021/10/12 15:24:30;;;;;;;1.90;1.33;;;;;;;13.57;69.77;98877.66;5071172;28;39966;-80
2021/10/12 15:26:57;;;;;;;1.00;1.00;;;;;;;13.67;69.66;98891.09;5087919;28;42104;-74
2021/10/12 15:29:26;;;;;;;3.30;2.23;;;;;;;13.66;69.96;98897.41;5086718;28;43701;-74
2021/10/12 15:31:54;;;;;;;1.50;1.33;;;;;;;13.61;70.10;98891.53;5086690;28;41162;-76
2021/10/12 15:34:22;;;;;;;1.40;1.30;;;;;;;13.55;70.45;98892.03;5104253;28;38677;-77
2021/10/12 15:36:50;;;;;;;1.70;1.30;;;;;;;13.43;70.81;98890.25;5049923;28;41028;-78
2021/10/12 15:39:21;;;;;;;0.90;0.90;;;;;;;13.41;70.86;98887.72;5085687;28;41523;-76
2021/10/12 15:41:51;;;;;;;1.47;1.20;;;;;;;13.36;70.90;98883.69;5068504;28;41427;-76
2021/10/12 15:44:20;;;;;;;3.47;1.40;;;;;;;13.22;71.30;98874.94;5087593;28;40137;-74
2021/10/12 15:46:50;;;;;;;1.00;1.00;;;;;;;13.23;71.27;98889.03;5069852;28;41856;-75
2021/10/12 15:49:19;;;;;;;1.07;1.00;;;;;;;13.17;71.54;98889.50;5086882;28;44129;-76
2021/10/12 15:51:51;;;;;;;1.20;1.10;;;;;;;13.15;71.61;98891.41;5069417;28;42092;-76
2021/10/12 15:54:19;;;;;;;1.27;1.10;;;;;;;13.12;71.41;98903.09;5087094;28;39006;-76
2021/10/12 15:56:47;;;;;;;1.10;1.00;;;;;;;13.11;71.68;98893.41;5063603;28;40688;-77
2021/10/12 15:59:16;;;;;;;1.83;1.27;;;;;;;12.98;71.88;98874.00;5069986;28;43145;-78
2021/10/12 16:01:46;;;;;;;1.10;1.00;;;;;;;13.08;71.59;98901.63;5086378;28;42244;-75
2021/10/12 16:04:16;;;;;;;1.10;1.00;;;;;;;13.03;71.79;98887.81;5053598;28;38917;-77
2021/10/12 16:06:45;;;;;;;0.90;0.90;;;;;;;13.04;71.79;98889.50;5087333;28;41717;-76
2021/10/12 16:09:13;;;;;;;1.50;1.30;;;;;;;12.95;71.88;98884.88;5070330;28;43241;-78
2021/10/12 16:11:43;;;;;;;1.33;1.13;;;;;;;12.98;72.18;98902.41;5070517;28;41150;-77
2021/10/12 16:14:16;;;;;;;0.73;0.73;;;;;;;12.91;72.04;98905.50;5084103;28;39076;-75
2021/10/12 16:17:06;;;;;;;1.00;0.90;;;;;;;12.85;72.95;98910.41;5084939;28;42761;-75
2021/10/12 16:22:16;;;;;;;1.20;1.00;;;;;;;12.65;74.50;98918.91;5086673;28;43107;-75
2021/10/12 16:24:44;;;;;;;1.33;1.23;;;;;;;12.56;74.60;98910.63;5084559;28;39605;-74
2021/10/12 16:27:11;;;;;;;1.03;0.97;;;;;;;12.50;75.18;98904.88;5086266;28;42694;-75
2021/10/12 16:29:40;;;;;;;0.93;0.90;;;;;;;12.43;75.29;98925.72;5086554;28;43722;-76
2021/10/12 16:32:07;;;;;;;1.00;1.00;;;;;;;12.38;75.89;98943.75;5085371;28;41850;-74
2021/10/12 16:34:37;;;;;;;0.60;0.60;;;;;;;12.18;74.79;98968.19;5086156;28;40942;-76
2021/10/12 16:37:07;;;;;;;0.77;0.60;;;;;;;11.94;74.91;98953.88;5087369;28;42544;-76
2021/10/12 16:39:36;;;;;;;0.63;0.63;;;;;;;11.77;74.66;98963.81;5087205;28;42824;-76
2021/10/12 16:42:07;;;;;;;0.50;0.50;;;;;;;11.61;74.68;98968.41;5071573;28;42272;-77
2021/10/12 16:44:37;;;;;;;0.47;0.47;;;;;;;11.48;74.50;98963.03;5086602;28;39701;-75
2021/10/12 16:47:06;;;;;;;0.57;0.57;;;;;;;11.35;74.97;98958.63;5068823;28;41734;-75
2021/10/12 16:49:34;;;;;;;0.50;0.47;;;;;;;11.27;74.77;98974.13;5090765;28;42718;-74
2021/10/12 16:52:07;;;;;;;1.03;0.50;;;;;;;11.18;74.57;98980.03;5089313;28;42178;-75
2021/10/12 16:54:35;;;;;;;2.07;0.50;;;;;;;11.09;74.77;98977.03;5091130;28;40440;-74
2021/10/12 16:57:03;;;;;;;0.43;0.43;;;;;;;11.01;74.96;98983.72;5090981;28;42546;-76
2021/10/12 16:59:33;;;;;;;0.40;0.40;;;;;;;10.90;75.22;98976.44;5089756;28;42708;-75
2021/10/12 17:02:00;;;;;;;0.40;0.40;;;;;;;10.93;75.26;98991.31;5072640;28;41645;-76
2021/10/12 17:04:29;;;;;;;0.50;0.50;;;;;;;10.79;75.30;98973.59;5073899;28;38934;-76
2021/10/12 17:06:57;;;;;;;0.47;0.40;;;;;;;10.77;75.41;98970.19;5089804;28;42437;-76
2021/10/12 17:09:26;;;;;;;0.30;0.30;;;;;;;10.75;75.53;98980.06;5089093;28;42421;-75
2021/10/12 17:11:53;;;;;;;0.57;0.57;;;;;;;10.64;75.56;98963.94;5072642;28;41612;-76
2021/10/12 17:14:22;;;;;;;0.40;0.40;;;;;;;10.69;75.81;98981.28;5088820;28;39486;-76
2021/10/12 17:16:50;;;;;;;0.30;0.30;;;;;;;10.64;75.95;98985.13;5089887;28;41800;-76
2021/10/12 17:19:18;;;;;;;0.33;0.30;;;;;;;10.66;75.53;98978.81;5089592;28;43666;-79
2021/10/12 17:21:46;;;;;;;0.30;0.30;;;;;;;10.62;75.55;98976.44;5106367;28;41231;-76
2021/10/12 17:24:15;;;;;;;0.90;0.40;;;;;;;10.48;75.98;98940.22;5090152;28;40151;-78
2021/10/12 17:26:45;;;;;;;1.40;0.50;;;;;;;10.53;76.18;98951.34;5090724;28;41877;-77
2021/10/12 17:29:17;;;;;;;1.80;0.40;;;;;;;10.54;75.94;98954.84;5088115;28;42317;-77
2021/10/12 17:31:44;;;;;;;1.00;0.40;;;;;;;10.54;75.79;98953.06;5090139;28;42817;-76
2021/10/12 17:34:15;;;;;;;0.60;0.60;;;;;;;10.55;75.85;98956.56;5089587;28;38909;-77
2021/10/12 17:36:43;;;;;;;0.30;0.30;;;;;;;10.53;76.08;98956.66;5089908;28;41827;-76
2021/10/12 17:39:11;;;;;;;0.30;0.30;;;;;;;10.52;76.08;98954.94;5087289;28;43343;-76
2021/10/12 17:41:39;;;;;;;0.50;0.50;;;;;;;10.52;75.99;98957.59;5088886;28;42665;-78
2021/10/12 17:44:10;;;;;;;0.50;0.40;;;;;;;10.46;76.76;98949.19;5089263;28;39256;-77
2021/10/12 17:46:38;;;;;;;0.97;0.87;;;;;;;10.42;77.08;98957.31;5089248;28;42239;-78
2021/10/12 17:49:06;;;;;;;0.50;0.50;;;;;;;10.41;76.62;98958.25;5088405;28;42804;-77
2021/10/12 17:51:34;;;;;;;0.80;0.70;;;;;;;10.42;77.33;98957.31;5088437;28;41790;-77
2021/10/12 17:54:07;;;;;;;0.70;0.70;;;;;;;10.44;76.61;98965.16;5067516;28;39883;-77
2021/10/12 17:56:35;;;;;;;0.70;0.70;;;;;;;10.46;76.68;98965.06;5072793;28;40420;-77
2021/10/12 17:59:03;;;;;;;0.70;0.70;;;;;;;10.45;76.52;98969.50;5089539;28;42241;-78
2021/10/12 18:01:32;;;;;;;0.83;0.60;;;;;;;10.44;76.10;98965.16;5089147;28;42453;-76
2021/10/12 18:03:59;;;;;;;0.60;0.60;;;;;;;10.35;76.28;98963.94;5090500;28;40070;-78
2021/10/12 18:06:27;;;;;;;0.60;0.60;;;;;;;10.34;76.47;98977.25;5090334;28;41931;-77
2021/10/12 18:08:55;;;;;;;0.87;0.50;;;;;;;10.29;76.25;98977.50;5089126;28;42787;-76
2021/10/12 18:11:27;;;;;;;0.83;0.40;;;;;;;10.28;76.28;98991.69;5071902;28;42708;-77
2021/10/12 18:13:56;;;;;;;0.50;0.40;;;;;;;10.27;75.92;99000.56;5090241;28;40683;-78
2021/10/12 18:16:26;;;;;;;0.40;0.40;;;;;;;10.27;75.95;99003.22;5088419;28;41836;-78
2021/10/12 18:18:55;;;;;;;0.53;0.50;;;;;;;10.25;75.92;98999.84;5088810;28;43501;-75
2021/10/12 18:21:24;;;;;;;0.50;0.50;;;;;;;10.12;75.78;98988.22;5071543;28;42211;-79
2021/10/12 18:23:57;;;;;;;0.80;0.63;;;;;;;10.22;76.22;99021.19;5072163;28;40017;-77
2021/10/12 18:26:31;;;;;;;0.63;0.60;;;;;;;10.22;76.33;99023.81;5088019;28;42676;-78
2021/10/12 18:28:59;;;;;;;0.60;0.50;;;;;;;10.23;76.55;99025.53;5085462;28;43773;-77
2021/10/12 18:31:27;;;;;;;0.60;0.40;;;;;;;10.20;76.65;99019.56;5088507;28;42612;-76
2021/10/12 18:33:58;;;;;;;0.93;0.90;;;;;;;10.21;76.51;99022.13;5088675;28;39166;-77
2021/10/12 18:36:26;;;;;;;1.07;0.80;;;;;;;10.18;76.42;99030.22;5122057;27;41957;-77
2021/10/12 18:38:54;;;;;;;0.50;0.50;;;;;;;10.13;76.55;99021.69;5054376;28;42731;-76
2021/10/12 18:41:22;;;;;;;0.73;0.73;;;;;;;10.05;76.56;99031.84;5121758;27;42214;-76
2021/10/12 18:43:51;;;;;;;0.80;0.60;;;;;;;9.97;76.67;99026.16;5087940;28;39484;-76
2021/10/12 18:46:19;;;;;;;0.83;0.60;;;;;;;9.82;76.98;99027.03;5088915;28;41721;-77
2021/10/12 18:48:49;;;;;;;2.17;1.10;;;;;;;9.70;76.88;99029.41;5055611;28;41425;-77
2021/10/12 18:51:19;;;;;;;0.77;0.77;;;;;;;9.66;77.03;99043.75;5070194;28;41448;-76
2021/10/12 18:53:48;;;;;;;1.37;0.80;;;;;;;9.59;77.23;99049.47;5088692;28;40149;-76
2021/10/12 18:56:16;;;;;;;0.83;0.80;;;;;;;9.53;77.55;99048.00;5051931;28;41822;-76
2021/10/12 18:58:47;;;;;;;0.97;0.80;;;;;;;9.30;77.17;99020.19;5088549;28;43272;-77
2021/10/12 19:01:18;;;;;;;1.10;1.00;;;;;;;9.25;77.42;99027.53;5087413;28;42599;-77
2021/10/12 19:03:47;;;;;;;3.00;0.57;;;;;;;9.23;77.83;99045.25;5089403;28;39607;-78
2021/10/12 19:06:15;;;;;;;0.77;0.67;;;;;;;9.21;77.53;99051.56;5070338;28;40718;-78
2021/10/12 19:08:45;;;;;;;2.87;0.60;;;;;;;9.14;77.99;99053.69;5054932;28;41654;-78
2021/10/12 19:11:18;;;;;;;0.93;0.93;;;;;;;9.12;78.17;99047.63;5087403;28;42080;-78
2021/10/12 19:13:48;;;;;;;0.43;0.43;;;;;;;9.02;78.31;99018.19;5087263;28;39944;-78
2021/10/12 19:16:18;;;;;;;0.70;0.70;;;;;;;9.12;78.54;99025.63;5066640;28;40636;-78
2021/10/12 19:18:46;;;;;;;0.90;0.80;;;;;;;9.29;78.23;99038.78;5087026;28;42932;-77
2021/10/12 19:21:14;;;;;;;0.80;0.70;;;;;;;9.29;77.83;99033.47;5070836;28;41203;-78
2021/10/12 19:23:47;;;;;;;0.53;0.53;;;;;;;9.43;78.06;99052.09;5088676;28;40127;-79
2021/10/12 19:26:18;;;;;;;0.87;0.60;;;;;;;9.41;77.73;99038.09;5118774;27;41264;-76
2021/10/12 19:28:46;;;;;;;0.83;0.60;;;;;;;9.46;77.72;99046.66;5069271;28;41685;-77
2021/10/12 19:31:14;;;;;;;0.60;0.60;;;;;;;9.43;77.89;99046.81;5102811;28;41270;-78
2021/10/12 19:33:41;;;;;;;12.37;5.03;;;;;;;9.42;77.97;99050.38;5069482;28;38666;-78
2021/10/12 19:36:09;;;;;;;2.77;1.20;;;;;;;9.37;77.60;99047.16;5069399;28;40804;-77
2021/10/12 19:38:38;;;;;;;2.53;0.87;;;;;;;9.18;78.47;99025.28;5069207;28;42306;-76
2021/10/12 19:41:10;;;;;;;0.93;0.80;;;;;;;9.28;78.21;99047.63;5085501;28;41357;-77
2021/10/12 19:43:39;;;;;;;0.73;0.70;;;;;;;9.20;78.41;99044.56;5087497;28;39026;-76
2021/10/12 19:46:06;;;;;;;0.60;0.60;;;;;;;8.96;78.74;99031.72;5086369;28;42608;-76
2021/10/12 19:48:34;;;;;;;1.70;0.90;;;;;;;9.06;78.49;99057.66;5085706;28;42927;-76
2021/10/12 19:51:02;;;;;;;0.50;0.50;;;;;;;8.97;78.83;99059.84;5102684;28;41400;-76
2021/10/12 19:53:30;;;;;;;0.97;0.83;;;;;;;8.92;79.43;99071.59;5087736;28;39941;-76
2021/10/12 19:55:59;;;;;;;1.00;0.97;;;;;;;8.86;78.88;99067.50;5069079;28;40735;-76
2021/10/12 19:58:27;;;;;;;0.60;0.60;;;;;;;8.81;79.36;99072.16;5085813;28;42882;-77
2021/10/12 20:00:55;;;;;;;1.90;0.60;;;;;;;8.67;79.72;99064.06;5086543;28;42329;-76
2021/10/12 20:06:07;;;;;;;1.37;0.60;;;;;;;8.70;80.16;99082.41;5085550;28;41005;-75
2021/10/12 20:08:36;;;;;;;0.70;0.50;;;;;;;8.68;80.18;99096.63;5086179;28;41511;-76
2021/10/12 20:11:06;;;;;;;0.70;0.50;;;;;;;8.62;80.11;99089.88;5085281;28;41115;-76
2021/10/12 20:13:36;;;;;;;0.70;0.70;;;;;;;8.53;80.04;99085.06;5069167;28;39001;-75
2021/10/12 20:16:06;;;;;;;0.93;0.70;;;;;;;8.57;80.22;99102.44;5068575;28;41419;-76
2021/10/12 20:21:18;;;;;;;1.70;1.23;;;;;;;8.51;80.27;99108.03;5086616;28;43204;-75
2021/10/12 20:23:46;;;;;;;0.83;0.80;;;;;;;8.47;79.88;99109.13;5085320;28;39349;-74